Time;durP1;ratioP1;P1;durP2;ratioP2;P2;SDS_P1;SDS_P2;PMS_P1;PMS_P2;Temp;Humidity;BMP_temperature;BMP_pressure;BME280_temperature;BME280_humidity;BME280_pressure;Samples;Min_cycle;Max_cycle;Signal;HPM_P1;HPM_P2
2022/09/02 00:00:50;;;;;;;7.60;4.03;;;;;;;11.01;73.95;102052.03;1724584;81;22210;-82
2022/09/02 00:03:17;;;;;;;6.45;3.27;;;;;;;10.99;73.95;102049.75;1749914;81;21763;-82
2022/09/02 00:05:44;;;;;;;7.33;3.25;;;;;;;10.98;73.95;102048.86;1744930;81;21077;-82
2022/09/02 00:08:11;;;;;;;7.62;3.30;;;;;;;10.99;74.00;102048.01;1733786;81;21054;-82
2022/09/02 00:10:41;;;;;;;6.67;3.92;;;;;;;10.99;73.99;102045.38;1726865;81;21087;-81
2022/09/02 00:13:09;;;;;;;5.72;3.15;;;;;;;10.98;74.01;102046.62;1720304;81;21074;-82
2022/09/02 00:15:35;;;;;;;5.50;3.20;;;;;;;10.95;74.05;102043.44;1741208;81;21772;-81
2022/09/02 00:18:03;;;;;;;5.42;3.05;;;;;;;10.93;74.09;102047.75;1720168;81;21046;-81
2022/09/02 00:20:30;;;;;;;5.47;3.00;;;;;;;10.91;74.14;102044.58;1719936;81;21110;-81
2022/09/02 00:22:57;;;;;;;4.85;2.90;;;;;;;10.90;74.18;102043.64;1741097;81;21078;-82
2022/09/02 00:25:24;;;;;;;7.20;3.10;;;;;;;10.91;74.22;102045.89;1719835;81;22183;-81
2022/09/02 00:27:51;;;;;;;7.47;2.50;;;;;;;10.91;74.23;102042.83;1742287;80;21691;-82
2022/09/02 00:30:18;;;;;;;7.22;3.20;;;;;;;10.88;74.25;102039.63;1710207;82;21075;-81
2022/09/02 00:32:45;;;;;;;4.85;2.58;;;;;;;10.89;74.29;102043.19;1710151;82;21146;-81
2022/09/02 00:35:12;;;;;;;4.80;2.58;;;;;;;10.87;74.28;102043.11;1710548;82;21884;-82
2022/09/02 00:37:39;;;;;;;7.17;2.72;;;;;;;10.87;74.34;102042.22;1710280;82;21078;-81
2022/09/02 00:40:07;;;;;;;3.95;2.52;;;;;;;10.86;74.39;102041.29;1710310;82;21751;-82
2022/09/02 00:42:34;;;;;;;3.52;2.30;;;;;;;10.87;74.39;102041.79;1711515;82;20985;-82
2022/09/02 00:45:01;;;;;;;5.25;3.02;;;;;;;10.87;74.37;102044.42;1732423;82;21004;-81
2022/09/02 00:47:29;;;;;;;6.12;3.52;;;;;;;10.88;74.43;102043.58;1709628;82;20960;-81
2022/09/02 00:49:57;;;;;;;6.03;3.77;;;;;;;10.89;74.42;102040.13;1681024;83;21475;-82
2022/09/02 00:52:31;;;;;;;6.65;3.80;;;;;;;10.91;74.40;102034.92;1666793;83;22586;-81
2022/09/02 00:55:06;;;;;;;6.12;3.50;;;;;;;10.93;74.40;102041.16;1741445;82;21453;-81
2022/09/02 00:57:36;;;;;;;5.55;3.40;;;;;;;10.94;74.36;102035.47;1702218;83;21418;-81
2022/09/02 01:00:16;;;;;;;5.87;3.37;;;;;;;10.93;74.35;102035.89;1711448;82;21024;-81
2022/09/02 01:02:42;;;;;;;4.47;2.70;;;;;;;10.93;74.36;102041.59;1692557;82;20935;-83
2022/09/02 01:05:11;;;;;;;4.55;2.67;;;;;;;10.92;74.33;102038.03;1692852;83;21731;-81
2022/09/02 01:07:37;;;;;;;6.55;2.77;;;;;;;10.93;74.37;102036.31;1711681;82;21004;-82
2022/09/02 01:10:07;;;;;;;5.37;2.22;;;;;;;10.93;74.36;102038.52;1711734;82;21527;-81
2022/09/02 01:12:34;;;;;;;3.80;2.70;;;;;;;10.94;74.33;102038.09;1711646;82;21008;-81
2022/09/02 01:15:01;;;;;;;7.90;3.08;;;;;;;10.95;74.35;102042.55;1696629;82;21000;-81
2022/09/02 01:17:28;;;;;;;6.50;3.00;;;;;;;10.94;74.34;102044.69;1699281;83;22622;-83
2022/09/02 01:20:00;;;;;;;5.60;3.15;;;;;;;10.95;74.33;102032.91;1711693;82;21445;-83
2022/09/02 01:22:29;;;;;;;6.85;4.10;;;;;;;10.97;74.31;102035.19;1711689;82;21730;-83
2022/09/02 01:24:58;;;;;;;5.15;3.00;;;;;;;10.98;74.36;102034.37;1711528;82;21558;-83
2022/09/02 01:27:26;;;;;;;6.50;3.12;;;;;;;11.00;74.35;102039.67;1702280;83;21415;-81
2022/09/02 01:29:56;;;;;;;6.12;3.40;;;;;;;11.02;74.33;102041.99;1710625;82;21786;-83
2022/09/02 01:32:23;;;;;;;4.87;3.17;;;;;;;11.05;74.37;102046.05;1708587;82;21069;-81
2022/09/02 01:34:50;;;;;;;6.72;2.62;;;;;;;11.07;74.35;102047.02;1709386;82;21070;-83
2022/09/02 01:37:17;;;;;;;6.08;2.95;;;;;;;11.12;74.31;102048.56;1710105;82;21071;-81
2022/09/02 01:39:44;;;;;;;6.05;3.15;;;;;;;11.13;74.27;102059.17;1710089;82;22277;-81
2022/09/02 01:42:11;;;;;;;5.03;2.67;;;;;;;11.14;74.20;102072.81;1709957;82;22672;-81
2022/09/02 01:44:42;;;;;;;3.80;2.30;;;;;;;11.19;74.35;102066.45;1709734;82;22047;-81
2022/09/02 01:47:06;;;;;;;4.10;2.27;;;;;;;11.29;74.45;102063.36;1709813;82;21082;-81
2022/09/02 01:49:33;;;;;;;5.92;2.47;;;;;;;11.41;74.44;102064.29;1709980;82;21051;-81
2022/09/02 01:52:00;;;;;;;4.87;2.42;;;;;;;11.53;74.39;102062.19;1710088;82;21066;-82
2022/09/02 01:54:27;;;;;;;4.33;2.52;;;;;;;11.62;74.23;102065.64;1721993;81;21760;-82
2022/09/02 01:56:54;;;;;;;4.40;2.30;;;;;;;11.73;74.18;102062.11;1716495;82;21084;-81
2022/09/02 01:59:20;;;;;;;4.22;2.90;;;;;;;11.82;74.06;102067.77;1703716;82;21101;-81
2022/09/02 02:01:47;;;;;;;3.40;2.00;;;;;;;11.89;73.88;102070.25;1716330;82;21407;-83
2022/09/02 02:04:14;;;;;;;3.67;2.30;;;;;;;11.93;73.81;102065.17;1717184;82;21497;-81
2022/09/02 02:06:42;;;;;;;5.78;2.37;;;;;;;11.98;73.69;102066.27;1709891;82;21744;-81
2022/09/02 02:09:10;;;;;;;3.42;2.20;;;;;;;12.00;73.57;102063.27;1696873;82;21126;-81
2022/09/02 02:11:37;;;;;;;4.70;2.00;;;;;;;11.99;73.50;102067.16;1675896;84;21514;-83
2022/09/02 02:14:08;;;;;;;3.42;2.12;;;;;;;12.00;73.48;102067.66;1712249;83;21075;-82
2022/09/02 02:16:33;;;;;;;4.22;2.45;;;;;;;11.99;73.44;102064.13;1702856;82;21101;-81
2022/09/02 02:19:00;;;;;;;5.72;2.60;;;;;;;11.97;73.41;102059.61;1707509;82;21835;-81
2022/09/02 02:21:27;;;;;;;4.17;2.22;;;;;;;11.95;73.40;102069.20;1708962;82;21040;-81
2022/09/02 02:23:53;;;;;;;3.55;2.25;;;;;;;11.89;73.39;102073.78;1716526;82;21070;-82
2022/09/02 02:26:20;;;;;;;3.05;2.27;;;;;;;11.83;73.39;102070.90;1730897;82;22006;-83
2022/09/02 02:28:47;;;;;;;5.15;2.55;;;;;;;11.75;73.43;102066.63;1715245;82;21062;-81
2022/09/02 02:31:14;;;;;;;5.60;2.42;;;;;;;11.64;73.41;102062.22;1720189;81;21746;-81
2022/09/02 02:33:40;;;;;;;3.80;2.47;;;;;;;11.57;73.49;102064.54;1718766;81;21133;-84
2022/09/02 02:36:08;;;;;;;4.78;2.60;;;;;;;11.50;73.67;102067.32;1687800;83;21097;-84
2022/09/02 02:38:35;;;;;;;9.28;2.83;;;;;;;11.47;73.77;102065.89;1723445;81;21121;-81
2022/09/02 02:41:03;;;;;;;5.17;2.90;;;;;;;11.43;73.83;102064.86;1725596;82;21566;-83
2022/09/02 02:43:30;;;;;;;6.45;2.50;;;;;;;11.41;73.91;102057.70;1714092;81;21755;-83
2022/09/02 02:45:57;;;;;;;6.62;2.40;;;;;;;11.40;74.02;102061.19;1737482;81;21062;-83
2022/09/02 02:48:23;;;;;;;4.67;2.75;;;;;;;11.40;74.08;102050.22;1725530;81;21077;-82
2022/09/02 02:50:50;;;;;;;4.50;2.52;;;;;;;11.44;74.19;102054.78;1734921;81;21074;-81
2022/09/02 02:53:17;;;;;;;7.25;2.62;;;;;;;11.51;74.17;102056.38;1725833;81;21102;-84
2022/09/02 02:55:44;;;;;;;4.55;2.62;;;;;;;11.53;74.06;102042.41;1748502;81;21726;-84
2022/09/02 02:58:10;;;;;;;4.97;2.77;;;;;;;11.57;74.03;102044.77;1741575;81;21041;-84
2022/09/02 03:00:37;;;;;;;5.20;3.00;;;;;;;11.65;74.00;102043.33;1729673;81;21423;-82
2022/09/02 03:03:07;;;;;;;6.97;2.60;;;;;;;11.71;73.80;102045.32;1738757;81;21164;-84
2022/09/02 03:05:34;;;;;;;5.10;2.70;;;;;;;11.72;73.66;102041.44;1755293;80;21066;-82
2022/09/02 03:08:02;;;;;;;6.62;3.70;;;;;;;11.74;73.58;102040.19;1714330;82;21771;-84
2022/09/02 03:10:31;;;;;;;4.97;2.83;;;;;;;11.77;73.60;102042.53;1746199;81;21527;-83
2022/09/02 03:12:58;;;;;;;4.25;2.50;;;;;;;11.80;73.52;102045.27;1754881;81;21589;-83
2022/09/02 03:15:25;;;;;;;3.90;2.60;;;;;;;11.82;73.47;102042.70;1755195;80;21708;-83
2022/09/02 03:17:52;;;;;;;4.50;2.83;;;;;;;11.82;73.46;102048.91;1726783;81;21532;-84
2022/09/02 03:20:19;;;;;;;3.17;2.47;;;;;;;11.81;73.38;102044.45;1718067;81;21758;-84
2022/09/02 03:22:46;;;;;;;4.55;2.55;;;;;;;11.81;73.28;102044.45;1739925;81;21056;-84
2022/09/02 03:25:16;;;;;;;5.15;1.95;;;;;;;11.82;73.21;102043.63;1723381;81;21085;-84
2022/09/02 03:27:45;;;;;;;5.17;1.82;;;;;;;11.82;73.11;102039.67;1742533;81;21031;-84
2022/09/02 03:30:16;;;;;;;3.22;2.05;;;;;;;11.84;73.02;102049.86;1685061;83;21007;-84
2022/09/02 03:32:44;;;;;;;3.50;2.10;;;;;;;11.85;72.90;102050.32;1684922;84;22046;-84
2022/09/02 03:35:13;;;;;;;3.60;2.20;;;;;;;11.85;72.83;102045.05;1684865;82;21050;-81
2022/09/02 03:37:40;;;;;;;3.42;2.30;;;;;;;11.83;72.74;102048.05;1705472;82;21051;-83
2022/09/02 03:40:10;;;;;;;9.08;2.30;;;;;;;11.81;72.66;102050.16;1705134;82;21095;-83
2022/09/02 03:42:37;;;;;;;3.15;1.98;;;;;;;11.79;72.68;102054.47;1682895;83;21445;-83
2022/09/02 03:45:05;;;;;;;3.58;1.70;;;;;;;11.79;72.62;102057.11;1667856;83;21563;-83
2022/09/02 03:47:33;;;;;;;2.85;1.50;;;;;;;11.80;72.66;102053.61;1672732;83;20987;-82
2022/09/02 03:50:02;;;;;;;2.87;1.67;;;;;;;11.83;72.54;102052.43;1707169;82;20968;-80
2022/09/02 03:52:28;;;;;;;6.60;1.62;;;;;;;11.81;72.48;102045.77;1719556;82;21499;-82
2022/09/02 03:54:55;;;;;;;2.75;1.80;;;;;;;11.86;72.55;102048.58;1707069;82;21015;-82
2022/09/02 03:57:24;;;;;;;3.37;1.85;;;;;;;11.89;72.45;102053.98;1707033;82;21794;-81
2022/09/02 03:59:50;;;;;;;2.52;1.57;;;;;;;11.91;72.47;102051.02;1727440;81;20992;-82
2022/09/02 04:02:17;;;;;;;2.25;1.60;;;;;;;11.95;72.41;102058.22;1719883;81;21105;-83
2022/09/02 04:04:44;;;;;;;3.02;1.60;;;;;;;11.98;72.34;102052.19;1726798;81;21043;-83
2022/09/02 04:07:11;;;;;;;2.70;1.55;;;;;;;11.98;72.23;102050.44;1727026;81;21498;-82
2022/09/02 04:09:37;;;;;;;3.85;1.42;;;;;;;11.99;72.21;102053.97;1726285;81;21637;-82
2022/09/02 04:12:05;;;;;;;4.42;1.87;;;;;;;11.98;72.10;102058.78;1737462;80;21027;-80
2022/09/02 04:14:32;;;;;;;2.27;1.40;;;;;;;11.99;72.10;102060.56;1727171;81;21010;-82
2022/09/02 04:16:59;;;;;;;2.72;1.52;;;;;;;11.95;71.92;102054.69;1734153;81;20994;-82
2022/09/02 04:19:26;;;;;;;1.98;1.40;;;;;;;11.95;71.89;102054.69;1730762;81;21010;-88
2022/09/02 04:21:53;;;;;;;2.37;1.27;;;;;;;11.95;71.82;102049.41;1727043;81;21720;-88
2022/09/02 04:24:19;;;;;;;2.75;1.60;;;;;;;11.95;71.82;102055.58;1725782;80;21080;-89
2022/09/02 04:26:46;;;;;;;3.60;1.70;;;;;;;11.96;71.87;102056.50;1728012;81;21094;-90
2022/09/02 04:29:13;;;;;;;2.67;1.70;;;;;;;12.00;71.82;102065.02;1748425;80;21032;-91
2022/09/02 04:31:40;;;;;;;3.05;1.85;;;;;;;12.06;71.73;102063.51;1719823;82;21097;-89
2022/09/02 04:34:06;;;;;;;2.98;1.50;;;;;;;12.11;71.75;102064.14;1721633;82;21778;-82
2022/09/02 04:36:33;;;;;;;4.00;1.85;;;;;;;12.18;71.62;102060.87;1713847;82;21099;-83
2022/09/02 04:39:00;;;;;;;4.17;2.00;;;;;;;12.20;71.45;102060.51;1712754;82;21591;-81
2022/09/02 04:41:29;;;;;;;6.28;2.08;;;;;;;12.21;71.46;102064.53;1753354;80;21070;-81
2022/09/02 04:43:56;;;;;;;3.58;2.10;;;;;;;12.27;71.41;102063.87;1709428;81;21587;-81
2022/09/02 04:46:23;;;;;;;3.52;2.20;;;;;;;12.27;71.30;102061.67;1761278;80;21836;-84
2022/09/02 04:48:50;;;;;;;4.35;2.30;;;;;;;12.25;71.22;102065.13;1700937;82;21325;-85
2022/09/02 04:51:19;;;;;;;4.78;2.30;;;;;;;12.24;71.13;102068.63;1715567;81;21030;-83
2022/09/02 04:53:49;;;;;;;3.65;2.00;;;;;;;12.22;71.07;102065.46;1677805;83;21596;-85
2022/09/02 04:56:21;;;;;;;3.10;1.82;;;;;;;12.19;71.00;102062.26;1751697;80;21077;-85
2022/09/02 04:58:51;;;;;;;6.53;2.30;;;;;;;12.17;70.98;102057.34;1750512;80;22855;-84
2022/09/02 05:01:25;;;;;;;3.20;2.40;;;;;;;12.13;70.87;102060.70;1771286;79;20992;-83
2022/09/02 05:03:52;;;;;;;4.33;2.52;;;;;;;12.09;70.90;102061.83;1753163;80;21491;-82
2022/09/02 05:06:22;;;;;;;5.53;2.20;;;;;;;12.05;70.87;102064.80;1769549;80;20998;-81
2022/09/02 05:08:49;;;;;;;3.95;2.05;;;;;;;12.02;70.90;102062.02;1722099;81;20999;-85
2022/09/02 05:11:21;;;;;;;2.47;1.90;;;;;;;11.97;70.87;102059.61;1721717;82;21713;-86
2022/09/02 05:13:51;;;;;;;3.72;1.70;;;;;;;11.95;70.91;102056.01;1718733;82;20975;-86
2022/09/02 05:16:20;;;;;;;4.78;2.58;;;;;;;11.94;70.87;102064.78;1714280;82;21002;-86
2022/09/02 05:18:48;;;;;;;3.22;1.90;;;;;;;11.94;70.91;102064.78;1714537;82;21042;-83
2022/09/02 05:21:15;;;;;;;7.67;4.87;;;;;;;11.96;70.95;102064.42;1723393;82;21423;-88
2022/09/02 05:23:42;;;;;;;3.85;1.82;;;;;;;11.97;70.90;102065.77;1727853;82;21746;-84
2022/09/02 05:26:09;;;;;;;5.33;1.70;;;;;;;11.98;70.94;102081.21;1711138;82;21031;-84
2022/09/02 05:28:36;;;;;;;5.25;1.60;;;;;;;12.00;71.22;102075.15;1709222;82;20984;-84
2022/09/02 05:31:11;;;;;;;5.80;2.50;;;;;;;12.08;71.24;102071.92;1702108;82;20984;-81
2022/09/02 05:33:43;;;;;;;3.58;1.65;;;;;;;12.11;71.14;102071.63;1713235;81;21039;-79
2022/09/02 05:36:13;;;;;;;3.83;1.62;;;;;;;12.16;71.19;102071.40;1702812;82;21728;-79
2022/09/02 05:38:40;;;;;;;2.12;1.37;;;;;;;12.24;71.16;102069.05;1677016;84;20975;-79
2022/09/02 05:41:18;;;;;;;2.83;1.85;;;;;;;12.32;71.25;102067.61;1677044;83;21046;-79
2022/09/02 05:43:46;;;;;;;4.05;1.77;;;;;;;12.45;71.27;102068.55;1674500;83;21007;-80
2022/09/02 05:46:19;;;;;;;5.35;1.62;;;;;;;12.62;71.20;102072.27;1748165;80;21491;-80
2022/09/02 05:49:05;;;;;;;2.87;1.85;;;;;;;12.75;71.06;102063.95;1748478;80;21742;-80
2022/09/02 05:51:36;;;;;;;3.22;1.77;;;;;;;12.90;70.91;102068.02;1748062;80;21406;-79
2022/09/02 05:54:03;;;;;;;5.53;1.77;;;;;;;13.07;70.83;102072.59;1748621;80;21013;-79
2022/09/02 05:56:29;;;;;;;6.62;5.30;;;;;;;13.18;70.58;102073.87;1745050;80;21010;-80
2022/09/02 05:58:57;;;;;;;4.45;2.50;;;;;;;13.23;70.38;102074.91;1748241;80;20998;-80
2022/09/02 06:01:24;;;;;;;5.33;2.70;;;;;;;13.29;70.32;102075.16;1748324;80;21714;-80
2022/09/02 06:03:51;;;;;;;3.85;2.37;;;;;;;13.34;70.13;102074.90;1748188;81;21469;-81
2022/09/02 06:06:21;;;;;;;5.22;1.98;;;;;;;13.40;70.11;102070.25;1739977;80;21033;-81
2022/09/02 06:08:47;;;;;;;2.62;1.62;;;;;;;13.49;70.11;102073.20;1702291;82;21039;-81
2022/09/02 06:11:17;;;;;;;2.77;2.00;;;;;;;13.59;70.05;102066.08;1687169;84;20991;-80
2022/09/02 06:13:44;;;;;;;4.62;2.08;;;;;;;13.68;69.96;102064.58;1689178;82;21812;-80
2022/09/02 06:16:16;;;;;;;4.85;2.70;;;;;;;13.75;69.97;102058.20;1707687;82;21510;-80
2022/09/02 06:18:43;;;;;;;6.42;2.90;;;;;;;13.88;69.86;102069.21;1712049;82;21003;-80
2022/09/02 06:21:09;;;;;;;7.58;3.05;;;;;;;13.96;69.72;102061.08;1762963;80;21491;-80
2022/09/02 06:23:37;;;;;;;5.22;2.72;;;;;;;14.05;69.61;102065.78;1770763;79;20982;-80
2022/09/02 06:26:06;;;;;;;9.08;2.00;;;;;;;14.15;69.59;102062.16;1764697;79;21721;-80
2022/09/02 06:28:33;;;;;;;5.42;2.55;;;;;;;14.28;69.66;102063.84;1761347;79;21010;-80
2022/09/02 06:31:09;;;;;;;4.83;2.95;;;;;;;14.42;69.65;102066.50;1774906;79;21019;-80
2022/09/02 06:33:36;;;;;;;3.42;1.95;;;;;;;14.56;69.42;102062.52;1764441;80;20982;-80
2022/09/02 06:36:08;;;;;;;6.87;1.65;;;;;;;14.70;69.32;102057.65;1767977;80;20978;-80
2022/09/02 06:38:39;;;;;;;2.12;1.40;;;;;;;14.88;69.23;102057.25;1762819;80;21776;-79
2022/09/02 06:41:06;;;;;;;4.70;2.02;;;;;;;15.10;69.15;102056.55;1761626;80;21093;-79
2022/09/02 06:43:33;;;;;;;4.28;2.15;;;;;;;15.40;69.10;102052.92;1771916;80;21046;-79
2022/09/02 06:45:59;;;;;;;4.85;1.70;;;;;;;15.72;68.80;102053.28;1757543;80;21495;-82
2022/09/02 06:48:26;;;;;;;8.15;2.33;;;;;;;16.07;68.41;102057.70;1755820;80;21579;-80
2022/09/02 06:50:54;;;;;;;1.75;1.30;;;;;;;16.36;67.84;102063.66;1752674;80;21743;-80
2022/09/02 06:53:21;;;;;;;1.45;1.17;;;;;;;16.61;67.32;102062.86;1748439;80;21078;-80
2022/09/02 06:55:47;;;;;;;4.12;1.17;;;;;;;16.75;66.80;102064.05;1743476;80;21531;-80
2022/09/02 06:58:14;;;;;;;7.12;1.30;;;;;;;16.76;65.99;102064.94;1748801;80;21090;-80
2022/09/02 07:00:41;;;;;;;4.53;1.45;;;;;;;16.76;66.00;102074.25;1753625;80;21112;-80
2022/09/02 07:06:09;;;;;;;4.62;2.15;;;;;;;16.81;65.69;102066.83;1701930;82;21074;-81
2022/09/02 07:08:40;;;;;;;7.55;1.62;;;;;;;16.90;65.45;102071.04;1708807;82;21129;-81
2022/09/02 07:11:19;;;;;;;2.25;1.22;;;;;;;16.99;65.35;102074.33;1709592;81;21500;-80
2022/09/02 07:13:53;;;;;;;3.50;1.55;;;;;;;17.04;64.68;102079.72;1710921;82;21094;-81
2022/09/02 07:16:28;;;;;;;7.67;1.70;;;;;;;17.12;64.75;102073.22;1713267;82;21775;-80
2022/09/02 07:18:56;;;;;;;4.78;1.20;;;;;;;17.29;64.65;102075.78;1694903;82;21479;-81
2022/09/02 07:21:23;;;;;;;8.70;1.67;;;;;;;17.46;64.40;102071.66;1725620;82;21018;-82
2022/09/02 07:23:50;;;;;;;3.50;1.10;;;;;;;17.63;64.08;102065.73;1726020;82;21027;-81
2022/09/02 07:26:24;;;;;;;4.70;0.93;;;;;;;17.79;63.73;102072.19;1706644;82;21321;-81
2022/09/02 07:28:58;;;;;;;3.20;0.75;;;;;;;17.91;63.23;102068.44;1689652;82;41234;-81
2022/09/02 07:31:29;;;;;;;1.95;1.25;;;;;;;18.14;62.96;102075.89;1667503;82;21140;-81
2022/09/02 07:34:00;;;;;;;1.90;1.12;;;;;;;18.40;62.21;102076.27;1688109;82;21710;-81
2022/09/02 07:36:25;;;;;;;4.62;0.72;;;;;;;18.67;62.09;102070.39;1683794;82;21581;-81
2022/09/02 07:38:55;;;;;;;1.45;0.93;;;;;;;18.95;61.50;102075.66;1688130;82;21109;-81
2022/09/02 07:41:25;;;;;;;1.92;1.10;;;;;;;19.06;60.68;102074.45;1698258;82;22181;-81
2022/09/02 07:43:51;;;;;;;2.02;0.93;;;;;;;19.06;60.13;102081.13;1697763;82;22091;-81
2022/09/02 07:46:22;;;;;;;1.82;1.37;;;;;;;19.04;60.09;102089.11;1693678;82;21109;-81
2022/09/02 07:48:52;;;;;;;4.15;2.17;;;;;;;19.09;59.72;102085.59;1703258;82;21980;-81
2022/09/02 07:51:21;;;;;;;5.45;1.90;;;;;;;18.92;59.59;102081.39;1710627;82;21483;-81
2022/09/02 07:53:48;;;;;;;7.20;3.62;;;;;;;18.77;59.77;102085.66;1689289;82;21756;-81
2022/09/02 07:56:15;;;;;;;6.05;2.77;;;;;;;18.67;59.90;102085.51;1700143;81;21083;-81
2022/09/02 07:58:47;;;;;;;4.53;1.80;;;;;;;18.60;59.96;102089.44;1680312;82;21061;-81
2022/09/02 08:01:21;;;;;;;2.67;1.30;;;;;;;18.55;59.74;102093.80;1694963;82;21097;-81
2022/09/02 08:03:50;;;;;;;3.25;1.32;;;;;;;18.55;59.69;102098.25;1705930;82;21105;-81
2022/09/02 08:06:17;;;;;;;3.70;2.10;;;;;;;18.52;59.70;102100.42;1690716;82;22456;-81
2022/09/02 08:08:47;;;;;;;4.90;1.87;;;;;;;18.55;59.95;102102.25;1701225;83;21009;-81
2022/09/02 08:11:19;;;;;;;5.78;2.20;;;;;;;18.64;59.91;102103.71;1641862;84;22119;-81
2022/09/02 08:13:48;;;;;;;11.08;2.40;;;;;;;18.71;59.89;102100.22;1643223;84;21649;-83
2022/09/02 08:16:14;;;;;;;5.12;1.98;;;;;;;18.80;60.09;102096.78;1667489;84;21106;-83
2022/09/02 08:18:43;;;;;;;6.83;2.27;;;;;;;19.00;60.15;102098.41;1668715;84;21793;-83
2022/09/02 08:21:12;;;;;;;7.42;2.98;;;;;;;19.11;59.70;102102.55;1644088;84;21070;-84
2022/09/02 08:23:39;;;;;;;2.55;1.57;;;;;;;19.14;59.80;102102.11;1677814;83;21125;-84
2022/09/02 08:26:06;;;;;;;1.22;1.10;;;;;;;19.22;59.14;102107.11;1666068;83;21089;-83
2022/09/02 08:28:34;;;;;;;2.87;1.72;;;;;;;19.31;58.75;102107.63;1668167;83;21727;-84
2022/09/02 08:31:08;;;;;;;1.67;1.55;;;;;;;19.31;58.75;102107.63;1665552;83;22563;-83
2022/09/02 08:33:35;;;;;;;3.25;1.75;;;;;;;19.45;58.52;102110.91;1690948;83;21889;-84
2022/09/02 08:36:04;;;;;;;4.05;3.40;;;;;;;19.55;58.45;102108.32;1696663;83;21516;-83
2022/09/02 08:38:31;;;;;;;4.83;1.30;;;;;;;19.76;58.32;102102.75;1719361;81;21058;-83
2022/09/02 08:41:01;;;;;;;3.47;1.47;;;;;;;19.96;57.80;102101.14;1732344;81;21521;-84
2022/09/02 08:43:41;;;;;;;2.92;1.10;;;;;;;20.07;57.42;102107.02;1716879;81;21897;-84
2022/09/02 08:46:12;;;;;;;3.50;1.10;;;;;;;20.16;57.36;102099.95;1733708;81;22053;-83
2022/09/02 08:49:10;;;;;;;1.35;1.10;;;;;;;20.32;56.89;102099.59;1749081;80;21084;-84
2022/09/02 08:52:00;;;;;;;6.35;1.20;;;;;;;20.34;56.64;102100.50;1764018;79;21029;-86
2022/09/02 08:54:47;;;;;;;2.55;1.10;;;;;;;20.36;56.33;102104.52;1763004;79;21108;-84
2022/09/02 08:57:14;;;;;;;1.37;1.00;;;;;;;20.26;55.96;102097.34;1720438;82;21748;-84
2022/09/02 08:59:47;;;;;;;2.65;1.00;;;;;;;20.22;55.43;102099.10;1734381;82;21600;-84
2022/09/02 09:02:46;;;;;;;1.70;1.10;;;;;;;20.19;55.30;102081.70;1716254;81;21633;-84
2022/09/02 09:05:41;;;;;;;1.67;1.20;;;;;;;20.28;54.92;102099.13;1713530;82;20911;-84
2022/09/02 09:08:38;;;;;;;2.60;1.55;;;;;;;20.30;54.48;102096.02;1680166;82;21619;-83
2022/09/02 09:11:19;;;;;;;4.55;3.80;;;;;;;20.38;54.02;102096.06;1697406;82;22542;-83
2022/09/02 09:14:25;;;;;;;2.70;2.08;;;;;;;20.31;53.54;102088.47;1708538;82;21550;-83
2022/09/02 09:17:03;;;;;;;1.95;1.60;;;;;;;20.28;53.52;102098.25;1711400;81;21093;-83
2022/09/02 09:19:49;;;;;;;3.40;1.90;;;;;;;20.18;53.63;102091.50;1705518;82;21544;-86
2022/09/02 09:22:19;;;;;;;6.55;2.10;;;;;;;20.12;52.63;102098.57;1707365;82;21039;-83
2022/09/02 09:24:46;;;;;;;2.25;0.82;;;;;;;20.11;52.72;102089.66;1713476;80;22548;-83
2022/09/02 09:27:16;;;;;;;2.65;0.70;;;;;;;20.25;52.96;102088.86;1713086;82;20996;-87
2022/09/02 09:29:45;;;;;;;2.92;1.35;;;;;;;20.15;52.58;102075.43;1699967;82;21631;-84
2022/09/02 09:32:38;;;;;;;5.25;0.98;;;;;;;20.10;52.57;102091.91;1716012;82;21114;-84
2022/09/02 09:35:26;;;;;;;6.00;1.30;;;;;;;20.00;52.38;102094.92;1625451;83;21349;-84
2022/09/02 09:37:59;;;;;;;1.95;0.85;;;;;;;20.00;52.62;102090.92;1690166;82;22127;-84
2022/09/02 09:40:31;;;;;;;1.72;0.57;;;;;;;20.31;53.19;102087.13;1691539;82;21102;-84
2022/09/02 09:43:09;;;;;;;0.70;0.50;;;;;;;20.59;52.93;102087.29;1711626;82;21117;-85
2022/09/02 09:45:50;;;;;;;2.12;0.50;;;;;;;20.77;52.75;102088.72;1690481;81;21145;-84
2022/09/02 09:48:22;;;;;;;0.88;0.53;;;;;;;20.76;52.24;102082.94;1725468;81;21086;-86
2022/09/02 09:51:00;;;;;;;2.37;0.50;;;;;;;20.62;52.40;102088.66;1697757;83;21837;-83
2022/09/02 09:53:30;;;;;;;0.93;0.60;;;;;;;20.51;52.35;102091.23;1691749;83;21141;-83
2022/09/02 09:56:06;;;;;;;0.55;0.40;;;;;;;20.49;52.55;102093.02;1716803;82;21109;-85
2022/09/02 09:58:43;;;;;;;0.57;0.40;;;;;;;20.57;52.60;102090.38;1660673;85;21100;-83
2022/09/02 10:01:26;;;;;;;0.85;0.45;;;;;;;20.73;52.57;102079.34;1643272;85;21063;-84
2022/09/02 10:04:11;;;;;;;0.20;0.20;;;;;;;20.90;52.48;102080.75;1669914;85;22076;-83
2022/09/02 10:06:47;;;;;;;1.37;0.68;;;;;;;20.94;52.51;102080.75;1669563;85;21114;-83
2022/09/02 10:09:22;;;;;;;1.17;0.60;;;;;;;21.07;52.64;102078.13;1632108;86;21075;-84
2022/09/02 10:12:08;;;;;;;3.25;0.72;;;;;;;21.20;52.54;102073.70;1629504;86;21071;-85
2022/09/02 10:14:43;;;;;;;1.52;0.60;;;;;;;21.37;52.45;102075.95;1666543;85;21011;-84
2022/09/02 10:17:49;;;;;;;0.55;0.50;;;;;;;21.53;51.84;102071.55;1639920;85;21805;-84
2022/09/02 10:20:40;;;;;;;0.95;0.50;;;;;;;21.61;52.08;102070.20;1665094;84;21027;-84
2022/09/02 10:23:33;;;;;;;0.80;0.60;;;;;;;21.71;51.59;102071.52;1669717;84;21038;-84
2022/09/02 10:26:16;;;;;;;1.37;0.40;;;;;;;21.58;51.01;102074.22;1663950;84;21742;-84
2022/09/02 10:29:23;;;;;;;0.72;0.57;;;;;;;21.47;51.10;102069.76;1666320;84;21520;-84
2022/09/02 10:32:35;;;;;;;1.77;0.53;;;;;;;21.61;51.22;102076.45;1609610;88;22092;-84
2022/09/02 10:35:10;;;;;;;0.60;0.40;;;;;;;21.52;51.04;102081.34;1559122;91;21066;-84
2022/09/02 10:38:10;;;;;;;0.68;0.40;;;;;;;21.32;50.85;102087.09;1530227;91;21087;-84
2022/09/02 10:40:54;;;;;;;0.68;0.50;;;;;;;21.16;51.01;102087.06;1551417;91;21118;-85
2022/09/02 10:44:01;;;;;;;1.25;0.50;;;;;;;21.00;51.07;102081.66;1548759;91;21099;-85
2022/09/02 10:46:44;;;;;;;0.85;0.40;;;;;;;20.81;50.97;102086.06;1547558;91;21178;-85
2022/09/02 10:49:37;;;;;;;1.70;0.62;;;;;;;20.42;50.43;102082.27;1539477;91;21038;-84
2022/09/02 10:52:30;;;;;;;0.72;0.50;;;;;;;20.24;50.64;102087.98;1540833;90;21209;-83
2022/09/02 10:55:19;;;;;;;0.68;0.50;;;;;;;20.24;50.64;102087.98;1488024;94;21128;-84
2022/09/02 10:58:02;;;;;;;0.88;0.60;;;;;;;20.48;50.61;102090.36;1484608;94;21189;-84
2022/09/02 11:00:30;;;;;;;1.15;0.65;;;;;;;20.48;50.61;102090.36;1476248;94;22545;-84
2022/09/02 11:03:19;;;;;;;1.98;0.60;;;;;;;20.46;50.52;102084.08;1487573;94;21175;-84
2022/09/02 11:05:57;;;;;;;0.60;0.50;;;;;;;20.42;50.37;102076.92;1488308;94;21247;-84
2022/09/02 11:08:46;;;;;;;0.95;0.40;;;;;;;20.36;50.27;102080.05;1492258;90;21571;-84
2022/09/02 11:11:39;;;;;;;1.77;0.75;;;;;;;20.52;50.13;102076.98;1598072;87;21141;-84
2022/09/02 11:14:33;;;;;;;0.40;0.37;;;;;;;20.52;50.13;102076.98;1617789;86;21862;-84
2022/09/02 11:17:20;;;;;;;1.40;0.70;;;;;;;20.74;50.14;102074.01;1604440;88;21195;-84
2022/09/02 11:20:15;;;;;;;1.35;0.75;;;;;;;20.91;49.92;102071.81;1603205;87;21251;-85
2022/09/02 11:23:02;;;;;;;1.27;0.65;;;;;;;21.02;49.52;102077.20;1600099;87;21124;-84
2022/09/02 11:25:40;;;;;;;0.60;0.60;;;;;;;21.07;49.07;102078.13;1607147;87;21646;-84
2022/09/02 11:28:25;;;;;;;1.17;0.80;;;;;;;21.07;49.07;102078.13;1573833;88;21976;-83
2022/09/02 11:31:09;;;;;;;1.17;0.60;;;;;;;21.02;48.93;102080.80;1556454;90;21090;-83
2022/09/02 11:33:59;;;;;;;2.77;1.57;;;;;;;20.80;48.72;102073.55;1702203;82;21082;-83
2022/09/02 11:36:29;;;;;;;3.95;1.15;;;;;;;20.67;49.06;102077.99;1647039;83;21075;-84
2022/09/02 11:39:09;;;;;;;5.00;0.80;;;;;;;20.45;49.45;102081.84;1701669;82;21076;-84
2022/09/02 11:41:58;;;;;;;1.87;1.02;;;;;;;20.13;49.17;102064.28;1713517;82;21724;-84
2022/09/02 11:45:11;;;;;;;1.00;0.75;;;;;;;19.95;49.54;102083.75;1754258;80;21049;-84
2022/09/02 11:48:10;;;;;;;1.57;0.50;;;;;;;19.72;49.76;102080.45;1758228;80;21097;-84
2022/09/02 11:51:02;;;;;;;1.85;1.10;;;;;;;19.12;50.39;102082.52;1759390;80;21743;-83